Bookmark and Share
Track history (hours):
 

Barbara Foss

More information available from US FCC via Universal Licensing System and Coast Guard Vessel Documentation Center.

Last reported at 2014-Apr-17 19:09 UTC. Time now 2014-Apr-18 10:40 UTC.
Position N 54°38' W 130°44'.

Length 39 m; draft 5.5 m.

Type: Towing. MMSI: 366932130.

NotesDate/timePositionNaut miles runAvg speedWind from/ knotsBaromVisibWave heightAir tempDewpointWater temp
2014-Apr-17 19:09N 54°38' W 130°44'8 8.1
2014-Apr-17 18:11N 54°30' W 130°41'5 8.5
2014-Apr-17 17:33N 54°25' W 130°38'9 9.3
2014-Apr-17 16:33N 54°17' W 130°32'7 6.2
2014-Apr-17 15:27N 54°15' W 130°21'3 3.5
2014-Apr-17 14:32N 54°18' W 130°21'1 1.1
2014-Apr-17 13:33N 54°19' W 130°20'1 0.6
2014-Apr-17 12:32N 54°19' W 130°19'0 0.0
2014-Apr-17 11:32N 54°19' W 130°19'0 0.0
2014-Apr-17 10:29N 54°19' W 130°19'0 0.0
2014-Apr-17 09:32N 54°19' W 130°19'0 0.0
2014-Apr-17 08:32N 54°19' W 130°19'0 0.0
2014-Apr-17 07:29N 54°19' W 130°19'0 0.0
2014-Apr-17 06:32N 54°19' W 130°19'2 1.6
2014-Apr-17 05:34N 54°18' W 130°21'0 0.0
2014-Apr-17 04:34N 54°18' W 130°21'0 0.0
2014-Apr-17 03:34N 54°18' W 130°21'0 0.0
2014-Apr-17 02:34N 54°18' W 130°21'0 0.0
2014-Apr-17 01:34N 54°18' W 130°21'0 0.0
2014-Apr-17 00:34N 54°18' W 130°21'0 0.0
2014-Apr-16 23:34N 54°18' W 130°21'0 0.0
2014-Apr-16 22:33N 54°18' W 130°21'0 0.0
2014-Apr-16 21:33N 54°18' W 130°21'0 0.0
2014-Apr-16 20:34N 54°18' W 130°21'0 0.0
2014-Apr-16 19:33N 54°18' W 130°21'0 0.0
2014-Apr-16 18:34N 54°18' W 130°21'0 0.0
2014-Apr-16 17:33N 54°18' W 130°21'2 2.0
2014-Apr-16 16:33N 54°16' W 130°22'4 4.0
2014-Apr-16 15:34N 54°14' W 130°28'5 5.0
2014-Apr-16 14:33N 54°18' W 130°34'5 4.6
2014-Apr-16 13:33N 54°22' W 130°36'4 4.4
2014-Apr-16 12:33N 54°26' W 130°39'5 4.7
2014-Apr-16 11:32N 54°31' W 130°41'5 4.5
2014-Apr-16 10:23N 54°36' W 130°44'276 5.9
2014-Apr-14 11:33N 58°17' W 135°42'6 6.3
2014-Apr-14 10:34N 58°17' W 135°54'7 6.4
2014-Apr-14 09:29N 58°15' W 136°06'7 7.1
2014-Apr-14 08:31N 58°17' W 136°19'  
2014-Apr-08 02:32N 58°16' W 136°10'7 7.0
2014-Apr-08 01:33N 58°16' W 135°57'3 2.7
2014-Apr-08 00:34N 58°18' W 135°52'2 2.0
2014-Apr-07 23:33N 58°19' W 135°49'4 3.6
2014-Apr-07 22:33N 58°17' W 135°55'5 4.6
2014-Apr-07 21:33N 58°15' W 136°02'4 3.6
2014-Apr-07 20:33N 58°16' W 135°56'5 4.5
2014-Apr-07 19:33N 58°18' W 135°49'  

Dump ship's entire track history

sailing weather and tide predictions

Barbara Foss — WYL4318 — position and weather